Time;durP1;ratioP1;P1;durP2;ratioP2;P2;SDS_P1;SDS_P2;PMS_P1;PMS_P2;Temp;Humidity;BMP_temperature;BMP_pressure;BME280_temperature;BME280_humidity;BME280_pressure;Samples;Min_cycle;Max_cycle;Signal;HPM_P1;HPM_P2
2023/01/03 00:00:42;;;;;;;;;;;;;;;7.93;98.52;97552.41;5055364;28;19960;-77
2023/01/03 00:03:07;;;;;;;;;;;;;;;7.91;98.65;97562.22;5073233;28;19955;-76
2023/01/03 00:05:34;;;;;;;;;;;;;;;7.91;98.68;97585.72;5073283;28;20471;-76
2023/01/03 00:08:00;;;;;;;;;;;;;;;7.91;98.93;97577.88;5072999;28;19945;-75
2023/01/03 00:10:27;;;;;;;;;;;;;;;7.89;99.06;97569.41;5073302;28;19990;-78
2023/01/03 00:12:55;;;;;;;;;;;;;;;7.87;98.70;97566.97;5073096;28;20322;-77
2023/01/03 00:15:21;;;;;;;;;;;;;;;7.88;98.93;97567.78;5073187;28;20335;-77
2023/01/03 00:17:46;;;;;;;;;;;;;;;7.87;99.31;97566.97;5073116;28;20020;-77
2023/01/03 00:20:12;;;;;;;;;;;;;;;7.86;98.72;97560.13;5073217;28;19956;-77
2023/01/03 00:22:38;;;;;;;;;;;;;;;7.84;98.60;97554.25;5076283;28;20041;-76
2023/01/03 00:25:04;;;;;;;;;;;;;;;7.83;98.73;97554.41;5059356;28;19951;-77
2023/01/03 00:27:30;;;;;;;;;;;;;;;7.82;99.31;97547.59;5076617;28;19954;-75
2023/01/03 00:29:56;;;;;;;;;;;;;;;7.80;99.22;97555.59;5076566;28;20077;-75
2023/01/03 00:32:22;;;;;;;;;;;;;;;7.79;99.01;97556.59;5077163;28;19948;-75
2023/01/03 00:34:48;;;;;;;;;;;;;;;7.79;99.20;97556.59;5076540;28;20000;-75
2023/01/03 00:37:14;;;;;;;;;;;;;;;7.78;99.24;97557.56;5076519;28;19976;-75
2023/01/03 00:39:40;;;;;;;;;;;;;;;7.76;99.09;97546.47;5076803;28;19959;-76
2023/01/03 00:42:06;;;;;;;;;;;;;;;7.76;98.75;97540.44;5076468;28;20403;-75
2023/01/03 00:44:32;;;;;;;;;;;;;;;7.75;98.93;97541.41;5075373;28;19954;-76
2023/01/03 00:46:58;;;;;;;;;;;;;;;7.74;98.47;97540.59;5076492;28;19946;-75
2023/01/03 00:49:24;;;;;;;;;;;;;;;7.72;98.42;97539.97;5076066;28;19998;-75
2023/01/03 00:51:52;;;;;;;;;;;;;;;7.69;98.69;97543.75;5076113;28;19958;-76
2023/01/03 00:54:19;;;;;;;;;;;;;;;7.69;98.53;97548.16;5076399;28;19953;-75
2023/01/03 00:56:45;;;;;;;;;;;;;;;7.65;98.46;97545.06;5076324;28;19952;-76
2023/01/03 00:59:12;;;;;;;;;;;;;;;7.65;98.55;97554.69;5076131;28;19969;-76
2023/01/03 01:01:42;;;;;;;;;;;;;;;7.62;98.34;97545.44;5076078;28;19950;-77
2023/01/03 01:04:10;;;;;;;;;;;;;;;7.62;98.62;97558.47;5076038;28;19955;-76
2023/01/03 01:06:40;;;;;;;;;;;;;;;7.59;98.61;97552.78;5076204;28;19950;-76
2023/01/03 01:09:08;;;;;;;;;;;;;;;7.56;98.80;97543.50;5075896;28;19950;-76
2023/01/03 01:11:34;;;;;;;;;;;;;;;7.55;98.72;97551.50;5058356;28;19953;-75
2023/01/03 01:14:00;;;;;;;;;;;;;;;7.52;99.02;97550.84;5075881;28;20396;-75
2023/01/03 01:16:28;;;;;;;;;;;;;;;7.52;98.78;97550.03;5075987;28;20341;-75
2023/01/03 01:18:54;;;;;;;;;;;;;;;7.51;98.96;97551.00;5075628;28;19964;-75
2023/01/03 01:21:25;;;;;;;;;;;;;;;7.50;99.35;97558.03;5057941;28;19947;-75
2023/01/03 01:23:51;;;;;;;;;;;;;;;7.48;99.30;97561.81;5075827;28;19958;-75
2023/01/03 01:26:18;;;;;;;;;;;;;;;7.45;99.32;97557.72;5075652;28;20301;-76
2023/01/03 01:28:43;;;;;;;;;;;;;;;7.44;99.37;97571.75;5075667;28;19955;-76
2023/01/03 01:31:12;;;;;;;;;;;;;;;7.45;98.98;97572.56;5074673;28;20381;-74
2023/01/03 01:33:38;;;;;;;;;;;;;;;7.41;98.68;97559.06;5075478;28;19945;-76
2023/01/03 01:36:05;;;;;;;;;;;;;;;7.38;99.01;97564.63;5075671;28;20441;-76
2023/01/03 01:38:30;;;;;;;;;;;;;;;7.36;98.96;97571.00;5075428;28;19971;-75
2023/01/03 01:40:56;;;;;;;;;;;;;;;7.34;99.12;97572.97;5075349;28;19981;-75
2023/01/03 01:46:22;;;;;;;;;;;;;;;7.31;99.46;97580.13;5064462;28;19950;-75
2023/01/03 01:48:49;;;;;;;;;;;;;;;7.29;99.34;97570.84;5065131;28;19942;-74
2023/01/03 01:51:17;;;;;;;;;;;;;;;7.29;99.51;97570.84;5075140;28;19950;-74
2023/01/03 01:53:43;;;;;;;;;;;;;;;7.28;99.32;97564.81;5075035;28;20324;-77
2023/01/03 01:56:17;;;;;;;;;;;;;;;7.28;99.21;97562.19;5074935;28;20412;-75
2023/01/03 01:58:44;;;;;;;;;;;;;;;7.28;99.38;97574.44;5074761;28;19963;-77
2023/01/03 02:01:12;;;;;;;;;;;;;;;7.27;99.44;97573.63;5074945;28;20408;-75
2023/01/03 02:03:40;;;;;;;;;;;;;;;7.27;99.34;97570.22;5074849;28;19947;-75
2023/01/03 02:06:07;;;;;;;;;;;;;;;7.24;99.35;97558.28;5074526;28;19948;-75
2023/01/03 02:08:33;;;;;;;;;;;;;;;7.23;99.25;97559.28;5074674;28;20440;-75
2023/01/03 02:11:15;;;;;;;;;;;;;;;7.24;99.55;97571.34;5074820;28;19957;-74
2023/01/03 02:13:47;;;;;;;;;;;;;;;7.23;99.33;97574.94;5074607;28;20311;-74
2023/01/03 02:16:13;;;;;;;;;;;;;;;7.21;99.20;97576.09;5074932;28;19955;-74
2023/01/03 02:18:38;;;;;;;;;;;;;;;7.20;99.17;97572.69;5074463;28;19962;-75
2023/01/03 02:21:07;;;;;;;;;;;;;;;7.19;99.16;97563.22;5074663;28;19952;-75
2023/01/03 02:23:52;;;;;;;;;;;;;;;7.19;98.65;97570.25;5074424;28;19957;-75
2023/01/03 02:26:18;;;;;;;;;;;;;;;7.17;98.92;97583.44;5074372;28;19941;-75
2023/01/03 02:29:02;;;;;;;;;;;;;;;7.17;98.93;97575.63;5074693;28;19948;-75
2023/01/03 02:31:36;;;;;;;;;;;;;;;7.15;99.11;97571.56;5074215;28;20030;-75
2023/01/03 02:34:08;;;;;;;;;;;;;;;7.14;99.14;97577.75;5056956;28;19948;-75
2023/01/03 02:36:48;;;;;;;;;;;;;;;7.12;98.90;97577.94;5064245;28;19974;-75
2023/01/03 02:39:26;;;;;;;;;;;;;;;7.10;98.66;97574.69;5074093;28;19974;-75
2023/01/03 02:42:56;;;;;;;;;;;;;;;7.08;99.13;97571.41;5074072;28;19951;-75
2023/01/03 02:45:13;;;;;;;;;;;;;;;7.05;99.10;97577.75;5073473;28;19947;-75
2023/01/03 02:47:55;;;;;;;;;;;;;;;7.03;99.10;97586.75;5029563;28;19969;-75
2023/01/03 02:50:24;;;;;;;;;;;;;;;7.01;99.15;97583.47;5056560;28;20420;-75
2023/01/03 02:52:52;;;;;;;;;;;;;;;6.97;99.03;97588.25;5074080;28;19946;-75
2023/01/03 02:55:20;;;;;;;;;;;;;;;6.95;99.32;97595.41;5056034;28;19950;-75
2023/01/03 02:57:49;;;;;;;;;;;;;;;6.93;98.97;97592.16;5056102;28;19945;-75
2023/01/03 03:00:16;;;;;;;;;;;;;;;6.91;99.13;97601.94;5074063;28;19967;-74
2023/01/03 03:02:48;;;;;;;;;;;;;;;6.90;99.15;97595.09;5073730;28;20405;-74
2023/01/03 03:05:18;;;;;;;;;;;;;;;6.86;99.08;97580.75;5073946;28;19955;-74
2023/01/03 03:07:44;;;;;;;;;;;;;;;6.84;99.12;97580.91;5073970;28;19964;-75
2023/01/03 03:13:13;;;;;;;;;;;;;;;6.82;99.30;97582.06;5073694;28;19953;-75
2023/01/03 03:15:45;;;;;;;;;;;;;;;6.79;99.49;97570.19;5074148;28;19951;-75
2023/01/03 03:18:16;;;;;;;;;;;;;;;6.78;99.52;97580.75;5073605;28;19969;-75
2023/01/03 03:26:17;;;;;;;;;;;;;;;6.74;99.93;97584.69;5073642;28;19949;-75
2023/01/03 03:28:46;;;;;;;;;;;;;;;6.71;99.96;97589.25;5073827;28;19953;-76
2023/01/03 03:31:12;;;;;;;;;;;;;;;6.71;100.00;97585.81;5073395;28;20299;-76
2023/01/03 03:33:42;;;;;;;;;;;;;;;6.68;100.00;97586.97;5073844;28;19954;-75
2023/01/03 03:36:11;;;;;;;;;;;;;;;6.69;99.96;97590.38;5072945;28;19950;-77
2023/01/03 03:38:42;;;;;;;;;;;;;;;6.68;99.77;97586.97;5073472;28;19973;-75
2023/01/03 03:46:48;;;;;;;;;;;;;;;6.61;99.74;97580.78;5063631;28;19951;-76
2023/01/03 03:52:01;;;;;;;;;;;;;;;6.55;99.56;97586.69;5073426;28;19953;-75
2023/01/03 03:54:30;;;;;;;;;;;;;;;6.52;99.68;97594.81;5073010;28;19958;-76
2023/01/03 03:57:04;;;;;;;;;;;;;;;6.51;99.90;97590.59;5075555;28;19950;-76
2023/01/03 03:59:31;;;;;;;;;;;;;;;6.49;99.78;97590.75;5077765;28;20352;-76
2023/01/03 04:01:59;;;;;;;;;;;;;;;6.49;99.65;97597.75;5077236;28;19954;-75
2023/01/03 04:04:30;;;;;;;;;;;;;;;6.46;99.42;97596.25;5059554;28;19946;-75
2023/01/03 04:06:56;;;;;;;;;;;;;;;6.43;99.36;97601.81;5077298;28;20293;-75
2023/01/03 04:09:22;;;;;;;;;;;;;;;6.40;98.98;97596.91;5077052;28;19941;-75
2023/01/03 04:11:48;;;;;;;;;;;;;;;6.36;98.82;97598.22;5077348;28;19951;-74
2023/01/03 04:14:14;;;;;;;;;;;;;;;6.32;98.70;97598.72;5077042;28;19956;-75
2023/01/03 04:16:39;;;;;;;;;;;;;;;6.27;98.40;97597.41;5077229;28;20006;-75
2023/01/03 04:19:05;;;;;;;;;;;;;;;6.23;98.64;97603.91;5076976;28;20422;-75
2023/01/03 04:21:31;;;;;;;;;;;;;;;6.20;98.50;97593.81;5076903;28;19947;-75
2023/01/03 04:23:57;;;;;;;;;;;;;;;6.16;98.50;97594.31;5058745;28;19984;-75
2023/01/03 04:26:23;;;;;;;;;;;;;;;6.12;98.52;97593.81;5076849;28;19994;-74
2023/01/03 04:28:49;;;;;;;;;;;;;;;6.08;98.17;97602.91;5076903;28;20292;-75
2023/01/03 04:31:15;;;;;;;;;;;;;;;6.05;98.21;97603.25;5076699;28;20035;-75
2023/01/03 04:33:40;;;;;;;;;;;;;;;6.01;98.36;97607.16;5076677;28;19956;-76
2023/01/03 04:36:07;;;;;;;;;;;;;;;5.97;98.62;97603.25;5076331;28;19993;-76
2023/01/03 04:38:33;;;;;;;;;;;;;;;5.96;99.01;97606.81;5076684;28;20430;-74
2023/01/03 04:41:05;;;;;;;;;;;;;;;5.94;99.12;97604.31;5076396;28;19964;-74
2023/01/03 04:46:15;;;;;;;;;;;;;;;5.90;98.75;97590.03;5063063;28;19959;-75
2023/01/03 04:48:41;;;;;;;;;;;;;;;5.85;99.02;97613.91;5076463;28;19963;-75
2023/01/03 04:51:07;;;;;;;;;;;;;;;5.83;99.06;97615.03;5076105;28;20036;-76
2023/01/03 04:53:33;;;;;;;;;;;;;;;5.80;99.02;97613.59;5076121;28;20315;-74
2023/01/03 04:55:59;;;;;;;;;;;;;;;5.75;99.57;97625.44;5076215;28;20004;-74
2023/01/03 04:58:25;;;;;;;;;;;;;;;5.72;100.00;97621.38;5076192;28;19970;-75
2023/01/03 05:00:51;;;;;;;;;;;;;;;5.73;100.00;97624.78;5076236;28;20455;-75
2023/01/03 05:03:17;;;;;;;;;;;;;;;5.74;100.00;97622.03;5058042;28;19951;-75
2023/01/03 05:05:43;;;;;;;;;;;;;;;5.75;100.00;97623.63;5076038;28;19958;-76
2023/01/03 05:08:11;;;;;;;;;;;;;;;5.74;100.00;97627.22;5075561;28;19993;-76
2023/01/03 05:10:38;;;;;;;;;;;;;;;5.77;100.00;97623.47;5075921;28;19951;-75
2023/01/03 05:13:04;;;;;;;;;;;;;;;5.78;100.00;97630.34;5075980;28;19955;-76
2023/01/03 05:15:30;;;;;;;;;;;;;;;5.78;100.00;97625.94;5074960;28;19957;-76
2023/01/03 05:17:57;;;;;;;;;;;;;;;5.79;100.00;97622.34;5075634;28;19948;-75
2023/01/03 05:25:56;;;;;;;;;;;;;;;5.76;100.00;97617.47;5075770;28;19966;-74
2023/01/03 05:28:22;;;;;;;;;;;;;;;5.76;100.00;97617.47;5075978;28;19960;-74
2023/01/03 05:30:48;;;;;;;;;;;;;;;5.73;100.00;97615.16;5075639;28;19952;-75
2023/01/03 05:33:14;;;;;;;;;;;;;;;5.73;100.00;97615.16;5075444;28;20049;-75
2023/01/03 05:35:40;;;;;;;;;;;;;;;5.72;100.00;97628.34;5075675;28;19954;-75
2023/01/03 05:38:06;;;;;;;;;;;;;;;5.69;100.00;97625.09;5075551;28;19993;-74
2023/01/03 05:40:32;;;;;;;;;;;;;;;5.67;100.00;97626.25;5075458;28;20424;-75
2023/01/03 05:42:58;;;;;;;;;;;;;;;5.64;100.00;97627.34;5075710;28;19954;-77
2023/01/03 05:45:26;;;;;;;;;;;;;;;5.62;100.00;97628.47;5075984;28;20349;-75
2023/01/03 05:47:51;;;;;;;;;;;;;;;5.60;100.00;97623.41;5075381;28;19957;-75
2023/01/03 05:50:17;;;;;;;;;;;;;;;5.59;100.00;97631.41;5075159;28;19958;-75
2023/01/03 05:52:43;;;;;;;;;;;;;;;5.56;100.00;97627.31;5075202;28;19948;-76
2023/01/03 05:55:09;;;;;;;;;;;;;;;5.54;100.00;97628.44;5075034;28;19956;-75
2023/01/03 05:57:35;;;;;;;;;;;;;;;5.49;100.00;97632.34;5074965;28;19996;-74
2023/01/03 06:00:02;;;;;;;;;;;;;;;5.48;100.00;97629.88;5075245;28;20438;-74
2023/01/03 06:02:28;;;;;;;;;;;;;;;5.46;100.00;97632.66;5075036;28;19955;-75
2023/01/03 06:04:54;;;;;;;;;;;;;;;5.44;100.00;97633.78;5057154;28;20009;-74
2023/01/03 06:07:20;;;;;;;;;;;;;;;5.43;100.00;97635.56;5074969;28;19953;-74
2023/01/03 06:09:45;;;;;;;;;;;;;;;5.42;100.00;97638.34;5074961;28;20455;-74
2023/01/03 06:12:11;;;;;;;;;;;;;;;5.41;100.00;97645.28;5074594;28;20012;-75
2023/01/03 06:14:37;;;;;;;;;;;;;;;5.37;100.00;97650.97;5074142;28;19958;-74
2023/01/03 06:19:47;;;;;;;;;;;;;;;5.32;100.00;97648.03;5073548;28;19984;-74
2023/01/03 06:22:13;;;;;;;;;;;;;;;5.30;100.00;97648.19;5074654;28;19995;-75
2023/01/03 06:24:39;;;;;;;;;;;;;;;5.28;100.00;97658.72;5074684;28;19981;-75
2023/01/03 06:27:05;;;;;;;;;;;;;;;5.25;100.00;97651.25;5074477;28;19951;-78
2023/01/03 06:29:31;;;;;;;;;;;;;;;5.22;100.00;97655.94;5074846;28;20409;-74
2023/01/03 06:31:57;;;;;;;;;;;;;;;5.19;100.00;97651.06;5074224;28;20398;-75
2023/01/03 06:34:22;;;;;;;;;;;;;;;5.16;100.00;97651.34;5074553;28;20006;-76
2023/01/03 06:36:48;;;;;;;;;;;;;;;5.16;100.00;97661.75;5074353;28;19975;-73
2023/01/03 06:39:14;;;;;;;;;;;;;;;5.15;100.00;97666.13;5074311;28;20439;-74
2023/01/03 06:41:40;;;;;;;;;;;;;;;5.13;100.00;97668.06;5074523;28;20498;-75
2023/01/03 06:44:06;;;;;;;;;;;;;;;5.12;100.00;97669.03;5074600;28;20405;-75
2023/01/03 06:54:47;;;;;;;;;;;;;;;4.99;99.71;97666.03;5074219;28;19950;-77
2023/01/03 06:57:13;;;;;;;;;;;;;;;4.96;99.73;97666.34;5074227;28;19960;-75
2023/01/03 06:59:39;;;;;;;;;;;;;;;4.98;100.00;97674.81;5074026;28;19964;-75
2023/01/03 07:02:07;;;;;;;;;;;;;;;5.09;100.00;97671.94;5074019;28;19960;-75
2023/01/03 07:04:33;;;;;;;;;;;;;;;5.24;100.00;97672.19;5073641;28;19964;-75
2023/01/03 07:06:59;;;;;;;;;;;;;;;5.38;100.00;97678.63;5073801;28;19952;-75
2023/01/03 07:09:26;;;;;;;;;;;;;;;5.53;100.00;97676.28;5073695;28;20004;-75
2023/01/03 07:11:55;;;;;;;;;;;;;;;5.63;100.00;97680.38;5073830;28;19953;-76
2023/01/03 07:14:20;;;;;;;;;;;;;;;5.74;100.00;97676.69;5073998;28;20413;-75
2023/01/03 07:16:47;;;;;;;;;;;;;;;5.84;100.00;97679.97;5073709;28;20398;-75
2023/01/03 07:19:14;;;;;;;;;;;;;;;5.95;100.00;97688.50;5073698;28;20331;-74
2023/01/03 07:21:41;;;;;;;;;;;;;;;6.03;100.00;97683.34;5073549;28;20420;-77
2023/01/03 07:24:07;;;;;;;;;;;;;;;6.12;100.00;97689.38;5073868;28;20436;-75
2023/01/03 07:26:34;;;;;;;;;;;;;;;6.15;100.00;97681.22;5073772;28;20413;-75
2023/01/03 07:29:01;;;;;;;;;;;;;;;6.01;97.42;97675.66;5074371;28;20298;-76
2023/01/03 07:31:26;;;;;;;;;;;;;;;5.85;96.82;97678.19;5073383;28;19959;-77
2023/01/03 07:33:52;;;;;;;;;;;;;;;5.68;97.05;97682.50;5073580;28;19960;-76
2023/01/03 07:36:19;;;;;;;;;;;;;;;5.55;97.64;97685.53;5073762;28;20032;-76
2023/01/03 07:38:45;;;;;;;;;;;;;;;5.45;98.16;97684.84;5073508;28;19964;-78
2023/01/03 07:41:12;;;;;;;;;;;;;;;5.35;98.26;97689.34;5055656;28;19951;-75
2023/01/03 07:43:40;;;;;;;;;;;;;;;5.28;98.38;97697.75;5055790;28;19951;-75
2023/01/03 07:46:20;;;;;;;;;;;;;;;5.22;99.05;97698.34;5073226;28;20335;-75
2023/01/03 07:48:50;;;;;;;;;;;;;;;5.18;99.36;97697.03;5073498;28;19951;-74
2023/01/03 07:51:16;;;;;;;;;;;;;;;5.16;99.59;97698.16;5073500;28;19954;-74
2023/01/03 07:53:43;;;;;;;;;;;;;;;5.14;99.96;97697.50;5063967;28;19959;-74
2023/01/03 07:56:10;;;;;;;;;;;;;;;5.14;99.97;97703.50;5073289;28;19949;-75
2023/01/03 07:58:36;;;;;;;;;;;;;;;5.13;100.00;97707.09;5073479;28;19978;-75
2023/01/03 08:01:12;;;;;;;;;;;;;;;5.14;100.00;97719.09;5073296;28;19959;-74
2023/01/03 08:03:39;;;;;;;;;;;;;;;5.17;100.00;97718.00;5073737;28;19959;-74
2023/01/03 08:06:06;;;;;;;;;;;;;;;5.19;100.00;97713.47;5072693;28;19949;-74
2023/01/03 08:08:32;;;;;;;;;;;;;;;5.23;100.00;97720.81;5073364;28;19960;-75
2023/01/03 08:13:43;;;;;;;;;;;;;;;5.39;100.00;97722.69;5061794;28;20411;-74
2023/01/03 08:16:10;;;;;;;;;;;;;;;5.44;100.00;97727.44;5073038;28;19956;-75
2023/01/03 08:18:37;;;;;;;;;;;;;;;5.48;100.00;97723.53;5072825;28;19949;-77
2023/01/03 08:21:03;;;;;;;;;;;;;;;5.50;100.00;97719.00;5073273;28;20362;-75
2023/01/03 08:23:29;;;;;;;;;;;;;;;5.53;100.00;97717.91;5073186;28;20046;-75
2023/01/03 08:26:00;;;;;;;;;;;;;;;5.55;100.00;97723.75;5072862;28;19963;-75
2023/01/03 08:28:25;;;;;;;;;;;;;;;5.55;100.00;97721.16;5073426;28;19964;-75
2023/01/03 08:30:51;;;;;;;;;;;;;;;5.56;100.00;97726.19;5072971;28;20674;-74
2023/01/03 08:33:18;;;;;;;;;;;;;;;5.57;100.00;97725.25;5073303;28;20055;-76
2023/01/03 08:35:53;;;;;;;;;;;;;;;5.59;100.00;97732.91;5062426;28;19946;-75
2023/01/03 08:38:31;;;;;;;;;;;;;;;5.61;100.00;97736.16;5072738;28;20420;-74
2023/01/03 08:40:59;;;;;;;;;;;;;;;5.63;100.00;97734.22;5073030;28;19971;-75
2023/01/03 08:43:26;;;;;;;;;;;;;;;5.67;100.00;97738.16;5075626;28;19951;-75
2023/01/03 08:45:52;;;;;;;;;;;;;;;5.71;100.00;97744.66;5076535;28;19961;-74
2023/01/03 08:48:19;;;;;;;;;;;;;;;5.79;100.00;97741.28;5076402;28;20420;-78
2023/01/03 08:50:45;;;;;;;;;;;;;;;5.83;100.00;97743.41;5076330;28;19951;-75
2023/01/03 08:53:11;;;;;;;;;;;;;;;5.88;100.00;97750.78;5076355;28;19953;-76
2023/01/03 08:55:37;;;;;;;;;;;;;;;5.90;100.00;97741.84;5076329;28;20364;-75
2023/01/03 08:58:03;;;;;;;;;;;;;;;5.94;100.00;97751.94;5076093;28;19999;-76
2023/01/03 09:00:29;;;;;;;;;;;;;;;5.95;100.00;97745.78;5058329;28;19969;-75
2023/01/03 09:03:00;;;;;;;;;;;;;;;5.96;100.00;97745.63;5076259;28;20046;-76
2023/01/03 09:05:27;;;;;;;;;;;;;;;5.99;100.00;97749.72;5075955;28;19956;-75
2023/01/03 09:07:54;;;;;;;;;;;;;;;6.02;100.00;97752.00;5076115;28;19957;-75
2023/01/03 09:10:20;;;;;;;;;;;;;;;6.05;100.00;97752.50;5075928;28;19954;-76
2023/01/03 09:12:46;;;;;;;;;;;;;;;6.09;100.00;97748.63;5058524;28;19959;-75
2023/01/03 09:15:12;;;;;;;;;;;;;;;6.15;100.00;97749.75;5075993;28;20321;-76
2023/01/03 09:17:42;;;;;;;;;;;;;;;6.19;100.00;97755.47;5075681;28;19958;-78
2023/01/03 09:20:09;;;;;;;;;;;;;;;6.24;100.00;97763.66;5060912;28;19966;-75
2023/01/03 09:22:35;;;;;;;;;;;;;;;6.27;100.00;97753.72;5075762;28;19955;-76
2023/01/03 09:25:01;;;;;;;;;;;;;;;6.33;100.00;97769.69;5075710;28;19959;-76
2023/01/03 09:27:27;;;;;;;;;;;;;;;6.36;100.00;97764.16;5075842;28;19950;-75
2023/01/03 09:29:53;;;;;;;;;;;;;;;6.42;100.00;97773.94;5057707;28;19997;-76
2023/01/03 09:32:19;;;;;;;;;;;;;;;6.47;100.00;97769.91;5075436;28;19967;-76
2023/01/03 09:34:45;;;;;;;;;;;;;;;6.57;100.00;97776.75;5076187;28;19973;-76
2023/01/03 09:37:11;;;;;;;;;;;;;;;6.63;100.00;97776.94;5075261;28;20438;-76
2023/01/03 09:39:39;;;;;;;;;;;;;;;6.72;100.00;97775.19;5075553;28;19969;-76
2023/01/03 09:44:52;;;;;;;;;;;;;;;6.97;100.00;97783.00;5075580;28;19956;-75
2023/01/03 09:47:20;;;;;;;;;;;;;;;7.08;100.00;97780.91;5075368;28;19949;-76
2023/01/03 09:49:46;;;;;;;;;;;;;;;7.20;99.64;97773.59;5075134;28;19955;-76
2023/01/03 10:04:10;;;;;;;;;;;;;;;7.24;98.56;97784.50;5074373;28;19943;-76
2023/01/03 10:07:00;;;;;;;;;;;;;;;7.25;98.18;97781.72;5075209;28;19955;-75
2023/01/03 10:09:34;;;;;;;;;;;;;;;7.20;98.55;97778.81;5074847;28;19949;-75
2023/01/03 10:12:00;;;;;;;;;;;;;;;7.16;98.33;97781.88;5074781;28;19955;-75
2023/01/03 10:14:32;;;;;;;;;;;;;;;7.10;98.56;97781.56;5074846;28;19950;-76
2023/01/03 10:17:21;;;;;;;;;;;;;;;7.10;99.29;97783.38;5074807;28;20326;-76
2023/01/03 10:19:47;;;;;;;;;;;;;;;7.20;98.55;97783.19;5066234;28;19962;-75
2023/01/03 10:22:25;;;;;;;;;;;;;;;7.28;98.38;97777.97;5074377;28;20477;-75
2023/01/03 10:24:57;;;;;;;;;;;;;;;7.43;98.59;97784.19;5074595;28;19958;-76
2023/01/03 10:27:26;;;;;;;;;;;;;;;7.54;97.29;97767.34;5074825;28;19953;-76
2023/01/03 10:29:58;;;;;;;;;;;;;;;7.57;96.44;97768.81;5074720;28;19965;-76
2023/01/03 10:32:27;;;;;;;;;;;;;;;7.52;96.71;97767.50;5074439;28;19964;-76
2023/01/03 10:35:11;;;;;;;;;;;;;;;7.56;96.09;97762.78;5074277;28;19954;-76
2023/01/03 10:37:39;;;;;;;;;;;;;;;7.59;96.55;97759.03;5074255;28;19973;-76
2023/01/03 10:40:05;;;;;;;;;;;;;;;7.64;96.55;97765.38;5074067;28;19969;-75
2023/01/03 10:42:33;;;;;;;;;;;;;;;7.72;96.91;97765.34;5074159;28;19953;-75
2023/01/03 10:45:00;;;;;;;;;;;;;;;7.79;96.31;97756.84;5074117;28;19952;-75
2023/01/03 10:47:26;;;;;;;;;;;;;;;7.80;95.62;97758.47;5074458;28;20320;-75
2023/01/03 10:49:59;;;;;;;;;;;;;;;7.77;95.19;97753.56;5074333;28;19996;-76
2023/01/03 10:52:29;;;;;;;;;;;;;;;7.81;95.34;97750.47;5065223;28;20318;-76
2023/01/03 10:54:58;;;;;;;;;;;;;;;7.82;95.03;97746.06;5074540;28;19951;-75
2023/01/03 10:57:38;;;;;;;;;;;;;;;7.80;95.26;97737.59;5073476;28;19953;-75
2023/01/03 11:00:25;;;;;;;;;;;;;;;7.99;94.96;97736.38;5073939;28;19981;-76
2023/01/03 11:02:51;;;;;;;;;;;;;;;8.16;93.31;97729.28;5074074;28;19955;-75
2023/01/03 11:05:19;;;;;;;;;;;;;;;8.32;94.46;97724.78;5073608;28;19949;-74
2023/01/03 11:07:51;;;;;;;;;;;;;;;8.47;91.49;97713.63;5074680;28;19949;-77
2023/01/03 11:10:17;;;;;;;;;;;;;;;8.51;92.21;97717.53;5074634;28;19951;-74
2023/01/03 11:12:43;;;;;;;;;;;;;;;8.54;91.16;97698.84;5074329;28;19951;-75
2023/01/03 11:15:18;;;;;;;;;;;;;;;8.61;91.98;97709.44;5074033;28;19998;-76
2023/01/03 11:17:54;;;;;;;;;;;;;;;8.76;90.86;97699.03;5062155;28;20297;-75
2023/01/03 11:20:21;;;;;;;;;;;;;;;8.87;90.92;97707.28;5073581;28;19962;-75
2023/01/03 11:22:55;;;;;;;;;;;;;;;8.98;90.48;97705.25;5073686;28;19946;-75
2023/01/03 11:25:33;;;;;;;;;;;;;;;9.00;89.47;97703.25;5073057;28;19943;-75
2023/01/03 11:28:05;;;;;;;;;;;;;;;8.92;89.24;97691.91;5074074;28;19956;-75
2023/01/03 11:30:31;;;;;;;;;;;;;;;8.96;90.69;97702.00;5073523;28;19966;-75
2023/01/03 11:33:20;;;;;;;;;;;;;;;9.11;90.93;97708.91;5073446;28;19953;-75
2023/01/03 11:35:52;;;;;;;;;;;;;;;9.22;89.68;97685.88;5063651;28;19947;-75
2023/01/03 11:38:27;;;;;;;;;;;;;;;9.35;88.99;97686.91;5073539;28;19976;-75
2023/01/03 11:40:59;;;;;;;;;;;;;;;9.37;88.23;97688.53;5073450;28;19978;-76
2023/01/03 11:43:25;;;;;;;;;;;;;;;9.37;88.99;97688.53;5055592;28;20321;-76
2023/01/03 11:46:10;;;;;;;;;;;;;;;9.41;87.55;97679.31;5073293;28;19958;-76
2023/01/03 11:48:46;;;;;;;;;;;;;;;9.35;88.12;97684.28;5073424;28;20048;-76
2023/01/03 11:51:23;;;;;;;;;;;;;;;9.36;88.22;97687.72;5073848;28;20059;-75
2023/01/03 11:53:59;;;;;;;;;;;;;;;9.38;87.27;97675.25;5060609;28;19952;-75
2023/01/03 11:56:37;;;;;;;;;;;;;;;9.31;88.01;97676.97;5073483;28;19951;-75
2023/01/03 11:59:16;;;;;;;;;;;;;;;9.21;87.56;97674.59;5073577;28;19958;-76
2023/01/03 12:01:43;;;;;;;;;;;;;;;9.08;87.75;97674.41;5073488;28;19967;-76
2023/01/03 12:04:21;;;;;;;;;;;;;;;8.98;87.13;97661.56;5073297;28;20297;-76
2023/01/03 12:06:47;;;;;;;;;;;;;;;8.93;88.60;97669.97;5073191;28;19955;-75
2023/01/03 12:09:25;;;;;;;;;;;;;;;8.89;88.37;97673.09;5073146;28;19947;-75
2023/01/03 12:12:10;;;;;;;;;;;;;;;8.92;87.82;97668.34;5073270;28;19955;-75
2023/01/03 12:14:43;;;;;;;;;;;;;;;8.92;88.44;97673.56;5062839;28;19954;-76
2023/01/03 12:17:14;;;;;;;;;;;;;;;8.92;88.32;97668.34;5074244;28;19949;-76
2023/01/03 12:19:58;;;;;;;;;;;;;;;8.96;88.92;97676.63;5077189;28;19949;-76
2023/01/03 12:22:24;;;;;;;;;;;;;;;8.98;89.58;97679.88;5076764;28;19955;-76
2023/01/03 12:24:56;;;;;;;;;;;;;;;9.06;88.27;97665.94;5076913;28;19998;-76
2023/01/03 12:27:30;;;;;;;;;;;;;;;9.09;89.08;97676.84;5076660;28;20429;-75
2023/01/03 12:29:56;;;;;;;;;;;;;;;9.18;88.17;97666.31;5077408;28;19960;-76
2023/01/03 12:32:33;;;;;;;;;;;;;;;9.20;87.63;97666.91;5076615;28;19950;-75
2023/01/03 12:35:08;;;;;;;;;;;;;;;9.21;87.53;97658.09;5076634;28;20408;-75
2023/01/03 12:37:36;;;;;;;;;;;;;;;9.14;88.38;97665.84;5076232;28;19975;-75
2023/01/03 12:40:08;;;;;;;;;;;;;;;9.11;87.79;97661.78;5076521;28;19972;-75
2023/01/03 12:42:43;;;;;;;;;;;;;;;9.08;88.17;97666.56;5076566;28;19956;-76
2023/01/03 12:45:09;;;;;;;;;;;;;;;9.01;85.75;97642.91;5077036;28;19948;-75
2023/01/03 12:47:53;;;;;;;;;;;;;;;9.01;87.64;97661.22;5075784;28;20513;-75
2023/01/03 12:50:37;;;;;;;;;;;;;;;9.13;87.70;97657.19;5076740;28;19952;-76
2023/01/03 12:53:03;;;;;;;;;;;;;;;9.22;85.05;97638.75;5076344;28;19965;-75
2023/01/03 12:55:42;;;;;;;;;;;;;;;9.22;86.94;97657.94;5076108;28;19950;-75
2023/01/03 12:58:13;;;;;;;;;;;;;;;9.24;83.51;97628.94;5076578;28;20406;-75
2023/01/03 13:00:39;;;;;;;;;;;;;;;9.19;82.44;97618.19;5076103;28;20422;-75
2023/01/03 13:03:14;;;;;;;;;;;;;;;9.09;82.21;97608.81;5076115;28;19978;-75
2023/01/03 13:05:46;;;;;;;;;;;;;;;9.08;83.69;97614.22;5076317;28;19968;-75
2023/01/03 13:08:18;;;;;;;;;;;;;;;9.10;83.55;97609.63;5076146;28;19971;-75
2023/01/03 13:10:47;;;;;;;;;;;;;;;9.12;82.57;97597.97;5076117;28;20338;-75
2023/01/03 13:13:15;;;;;;;;;;;;;;;9.16;81.56;97597.63;5075717;28;19959;-75
2023/01/03 13:15:40;;;;;;;;;;;;;;;9.14;80.16;97574.25;5076006;28;20425;-75
2023/01/03 13:18:15;;;;;;;;;;;;;;;9.18;83.23;97612.16;5075817;28;20003;-75
2023/01/03 13:20:41;;;;;;;;;;;;;;;9.24;82.80;97605.38;5075751;28;19970;-75
2023/01/03 13:23:25;;;;;;;;;;;;;;;9.29;82.60;97600.41;5076015;28;19958;-75
2023/01/03 13:26:09;;;;;;;;;;;;;;;9.31;79.71;97580.91;5076257;28;19957;-75
2023/01/03 13:28:36;;;;;;;;;;;;;;;9.30;79.82;97584.53;5060622;28;19944;-75
2023/01/03 13:31:25;;;;;;;;;;;;;;;9.26;81.67;97596.38;5075686;28;19964;-75
2023/01/03 13:33:55;;;;;;;;;;;;;;;9.25;80.01;97584.25;5067137;28;19955;-75
2023/01/03 13:36:22;;;;;;;;;;;;;;;9.25;79.95;97580.84;5075324;28;19950;-75
2023/01/03 13:38:48;;;;;;;;;;;;;;;9.28;82.02;97596.16;5058122;28;19962;-75
2023/01/03 13:41:34;;;;;;;;;;;;;;;9.28;80.69;97586.53;5075394;28;19976;-75
2023/01/03 13:44:08;;;;;;;;;;;;;;;9.31;82.06;97599.25;5074830;28;19948;-75
2023/01/03 13:46:38;;;;;;;;;;;;;;;9.37;82.62;97605.56;5075418;28;20437;-75
2023/01/03 13:49:05;;;;;;;;;;;;;;;9.38;81.80;97588.84;5075089;28;19958;-75
2023/01/03 13:51:37;;;;;;;;;;;;;;;9.32;82.03;97595.66;5075891;28;19957;-76
2023/01/03 13:54:09;;;;;;;;;;;;;;;9.22;80.29;97586.41;5075512;28;19956;-75
2023/01/03 13:56:41;;;;;;;;;;;;;;;9.07;80.03;97583.81;5075456;28;19963;-75
2023/01/03 13:59:10;;;;;;;;;;;;;;;8.91;82.02;97593.44;5075311;28;19958;-75